createdAt,value
2017-10-03T00:00:18.588Z,942.8
2017-10-03T00:01:26.621Z,942.8
2017-10-03T00:02:34.766Z,942.8
2017-10-03T00:03:42.794Z,942.8
2017-10-03T00:04:50.883Z,942.8
2017-10-03T00:05:58.970Z,942.8
2017-10-03T00:07:07.054Z,942.7
2017-10-03T00:08:15.266Z,942.7
2017-10-03T00:09:23.228Z,942.7
2017-10-03T00:10:31.317Z,942.7
2017-10-03T00:11:39.404Z,942.7
2017-10-03T00:12:47.494Z,942.6
2017-10-03T00:13:55.634Z,942.6
2017-10-03T00:15:03.909Z,942.6
2017-10-03T00:16:11.806Z,942.5
2017-10-03T00:17:19.858Z,942.6
2017-10-03T00:18:27.926Z,942.6
2017-10-03T00:19:36.133Z,942.5
2017-10-03T00:20:44.100Z,942.5
2017-10-03T00:21:52.185Z,942.5
2017-10-03T00:23:00.274Z,942.5
2017-10-03T00:24:08.359Z,942.5
2017-10-03T00:25:16.505Z,942.4
2017-10-03T00:26:24.534Z,942.4
2017-10-03T00:27:32.620Z,942.4
2017-10-03T00:28:40.706Z,942.3
2017-10-03T00:29:48.792Z,942.3
2017-10-03T00:30:56.935Z,942.3
2017-10-03T00:32:05.023Z,942.3
2017-10-03T00:33:13.062Z,942.2
2017-10-03T00:34:21.152Z,942.3
2017-10-03T00:35:29.284Z,942.2
2017-10-03T00:36:37.601Z,942.3
2017-10-03T00:37:45.570Z,942.3
2017-10-03T00:38:53.654Z,942.3
2017-10-03T00:40:01.754Z,942.2
2017-10-03T00:41:09.842Z,942.2
2017-10-03T00:42:17.986Z,942.2
2017-10-03T00:44:34.108Z,942.3
2017-10-03T00:45:42.190Z,942.2
2017-10-03T00:46:50.277Z,942.2
2017-10-03T00:47:58.503Z,942.3
2017-10-03T00:49:06.513Z,942.2
2017-10-03T00:50:14.538Z,942.2
2017-10-03T00:51:22.624Z,942.2
2017-10-03T00:52:30.845Z,942.1
2017-10-03T00:53:38.921Z,942.1
2017-10-03T00:54:46.888Z,942.0
2017-10-03T00:55:54.975Z,942.0
2017-10-03T00:57:03.069Z,942.0
2017-10-03T00:58:11.216Z,942.0
2017-10-03T00:59:19.298Z,942.0
2017-10-03T01:00:27.331Z,942.0
2017-10-03T01:01:35.614Z,942.0
2017-10-03T01:02:43.537Z,942.0
2017-10-03T01:03:51.712Z,942.0
2017-10-03T01:04:59.742Z,942.0
2017-10-03T01:06:07.761Z,942.0
2017-10-03T01:07:15.849Z,941.9
2017-10-03T01:08:23.934Z,941.9
2017-10-03T01:09:32.022Z,941.8
2017-10-03T01:10:40.168Z,941.8
2017-10-03T01:11:48.197Z,941.8
2017-10-03T01:12:56.287Z,941.7
2017-10-03T01:14:04.381Z,941.7
2017-10-03T01:15:12.469Z,941.7
2017-10-03T01:16:20.615Z,941.6
2017-10-03T01:17:28.651Z,941.6
2017-10-03T01:18:36.733Z,941.6
2017-10-03T01:19:44.938Z,941.6
2017-10-03T01:20:52.925Z,941.5
2017-10-03T01:22:01.055Z,941.5
2017-10-03T01:23:09.085Z,941.5
2017-10-03T01:24:17.170Z,941.5
2017-10-03T01:25:25.257Z,941.4
2017-10-03T01:26:33.346Z,941.3
2017-10-03T01:27:41.487Z,941.4
2017-10-03T01:28:49.518Z,941.3
2017-10-03T01:29:57.607Z,941.3
2017-10-03T01:31:05.693Z,941.2
2017-10-03T01:32:13.786Z,941.2
2017-10-03T01:33:21.931Z,941.2
2017-10-03T01:34:29.964Z,941.3
2017-10-03T01:35:38.169Z,941.2
2017-10-03T01:36:46.156Z,941.2
2017-10-03T01:37:54.241Z,941.2
2017-10-03T01:39:02.383Z,941.2
2017-10-03T01:40:10.518Z,941.1
2017-10-03T01:41:18.503Z,941.1
2017-10-03T01:42:26.594Z,941.1
2017-10-03T01:43:34.830Z,941.1
2017-10-03T01:44:42.821Z,941.1
2017-10-03T01:45:50.862Z,941.0
2017-10-03T01:46:58.948Z,941.0
2017-10-03T01:48:07.037Z,941.0
2017-10-03T01:49:15.121Z,941.1
2017-10-03T01:50:23.340Z,941.0
2017-10-03T01:51:31.360Z,941.0
2017-10-03T01:52:39.487Z,941.0
2017-10-03T01:53:47.481Z,940.9
2017-10-03T01:54:55.566Z,940.9
2017-10-03T01:56:03.767Z,940.8
2017-10-03T01:57:11.740Z,940.8
2017-10-03T01:58:19.826Z,940.8
2017-10-03T01:59:27.912Z,940.8
2017-10-03T02:00:36.160Z,940.7
2017-10-03T02:01:44.225Z,940.8
2017-10-03T02:02:52.229Z,940.7
2017-10-03T02:04:00.275Z,940.7
2017-10-03T02:05:08.361Z,940.7
2017-10-03T02:06:16.619Z,940.6
2017-10-03T02:07:24.655Z,940.6
2017-10-03T02:08:32.622Z,940.6
2017-10-03T02:09:40.710Z,940.5
2017-10-03T02:10:48.872Z,940.5
2017-10-03T02:11:56.887Z,940.6
2017-10-03T02:13:05.025Z,940.5
2017-10-03T02:14:13.054Z,940.5
2017-10-03T02:15:21.224Z,940.6
2017-10-03T02:16:29.228Z,940.5
2017-10-03T02:17:37.317Z,940.5
2017-10-03T02:18:45.459Z,940.5
2017-10-03T02:19:53.489Z,940.5
2017-10-03T02:21:01.576Z,940.5
2017-10-03T02:22:09.661Z,940.5
2017-10-03T02:23:17.869Z,940.4
2017-10-03T02:24:26.041Z,940.4
2017-10-03T02:25:34.114Z,940.4
2017-10-03T02:26:42.006Z,940.4
2017-10-03T02:27:50.094Z,940.4
2017-10-03T02:28:58.325Z,940.3
2017-10-03T02:30:06.337Z,940.3
2017-10-03T02:31:14.383Z,940.3
2017-10-03T02:32:22.466Z,940.3
2017-10-03T02:33:30.550Z,940.3
2017-10-03T02:34:38.639Z,940.2
2017-10-03T02:35:46.781Z,940.1
2017-10-03T02:36:54.812Z,940.1
2017-10-03T02:38:02.928Z,940.1
2017-10-03T02:39:11.104Z,940.1
2017-10-03T02:40:19.068Z,940.1
2017-10-03T02:41:27.213Z,940.1
2017-10-03T02:42:35.248Z,940.1
2017-10-03T02:43:43.331Z,940.1
2017-10-03T02:44:51.416Z,940.1
2017-10-03T02:45:59.534Z,940.0
2017-10-03T02:47:07.675Z,940.0
2017-10-03T02:48:15.709Z,939.9
2017-10-03T02:49:23.797Z,939.9
2017-10-03T02:50:31.881Z,939.9
2017-10-03T02:51:39.968Z,939.9
2017-10-03T02:52:48.180Z,939.9
2017-10-03T02:53:56.149Z,939.9
2017-10-03T02:55:04.293Z,939.9
2017-10-03T02:56:12.324Z,939.9
2017-10-03T02:57:20.411Z,939.9
2017-10-03T02:58:28.551Z,939.8
2017-10-03T02:59:36.582Z,939.8
2017-10-03T03:00:44.671Z,939.8
2017-10-03T03:01:52.756Z,939.8
2017-10-03T03:03:00.843Z,939.8
2017-10-03T03:04:09.050Z,939.8
2017-10-03T03:05:17.014Z,939.8
2017-10-03T03:06:25.226Z,939.8
2017-10-03T03:07:33.189Z,939.8
2017-10-03T03:08:41.271Z,939.9
2017-10-03T03:09:49.413Z,939.9
2017-10-03T03:10:57.502Z,939.8
2017-10-03T03:12:05.533Z,939.8
2017-10-03T03:13:13.629Z,939.8
2017-10-03T03:14:21.714Z,939.7
2017-10-03T03:15:29.925Z,939.7
2017-10-03T03:16:37.886Z,939.7
2017-10-03T03:17:45.973Z,939.6
2017-10-03T03:18:54.058Z,939.7
2017-10-03T03:20:02.147Z,939.7
2017-10-03T03:21:10.323Z,939.6
2017-10-03T03:22:18.351Z,939.7
2017-10-03T03:23:26.438Z,939.6
2017-10-03T03:24:34.525Z,939.6
2017-10-03T03:25:42.612Z,939.6
2017-10-03T03:26:50.820Z,939.6
2017-10-03T03:27:58.785Z,939.6
2017-10-03T03:29:06.871Z,939.6
2017-10-03T03:30:14.959Z,939.6
2017-10-03T03:31:23.045Z,939.6
2017-10-03T03:32:31.187Z,939.6
2017-10-03T03:33:39.216Z,939.5
2017-10-03T03:34:47.304Z,939.5
2017-10-03T03:35:55.391Z,939.5
2017-10-03T03:37:03.477Z,939.5
2017-10-03T03:38:11.644Z,939.5
2017-10-03T03:39:19.647Z,939.5
2017-10-03T03:40:27.734Z,939.5
2017-10-03T03:41:35.821Z,939.3
2017-10-03T03:42:44.102Z,939.3
2017-10-03T03:43:52.113Z,939.4
2017-10-03T03:45:00.082Z,939.4
2017-10-03T03:46:08.314Z,939.3
2017-10-03T03:47:16.254Z,939.3
2017-10-03T03:48:24.337Z,939.3
2017-10-03T03:49:32.482Z,939.3
2017-10-03T03:50:40.509Z,939.3
2017-10-03T03:51:48.617Z,939.2
2017-10-03T03:52:56.692Z,939.2
2017-10-03T03:54:04.776Z,939.2
2017-10-03T03:55:12.920Z,939.2
2017-10-03T03:56:20.947Z,939.3
2017-10-03T03:57:29.054Z,939.3
2017-10-03T03:58:37.270Z,939.2
2017-10-03T03:59:45.236Z,939.2
2017-10-03T04:00:53.565Z,939.2
2017-10-03T04:02:01.453Z,939.1
2017-10-03T04:03:09.493Z,939.1
2017-10-03T04:04:17.589Z,939.1
2017-10-03T04:05:25.677Z,939.0
2017-10-03T04:06:33.819Z,939.1
2017-10-03T04:07:41.846Z,939.1
2017-10-03T04:08:49.934Z,939.0
2017-10-03T04:09:58.095Z,939.0
2017-10-03T04:11:06.106Z,939.0
2017-10-03T04:12:14.309Z,938.9
2017-10-03T04:13:22.286Z,938.9
2017-10-03T04:14:30.607Z,938.9
2017-10-03T04:15:38.457Z,938.9
2017-10-03T04:16:46.542Z,938.9
2017-10-03T04:17:54.686Z,938.9
2017-10-03T04:19:02.716Z,938.8
2017-10-03T04:20:10.802Z,938.8
2017-10-03T04:21:18.892Z,938.8
2017-10-03T04:22:26.978Z,938.8
2017-10-03T04:23:35.186Z,938.8
2017-10-03T04:24:43.159Z,938.8
2017-10-03T04:25:51.237Z,938.8
2017-10-03T04:26:59.323Z,938.8
2017-10-03T04:28:07.409Z,938.8
2017-10-03T04:29:15.653Z,938.8
2017-10-03T04:30:23.638Z,938.8
2017-10-03T04:31:31.670Z,938.7
2017-10-03T04:32:39.758Z,938.7
2017-10-03T04:33:47.842Z,938.7
2017-10-03T04:34:56.050Z,938.7
2017-10-03T04:36:04.013Z,938.7
2017-10-03T04:37:12.258Z,938.7
2017-10-03T04:38:20.275Z,938.6
2017-10-03T04:39:28.276Z,938.6
2017-10-03T04:40:36.415Z,938.6
2017-10-03T04:41:44.446Z,938.6
2017-10-03T04:42:52.531Z,938.6
2017-10-03T04:44:00.618Z,938.5
2017-10-03T04:45:08.710Z,938.5
2017-10-03T04:46:16.851Z,938.5
2017-10-03T04:47:24.886Z,938.5
2017-10-03T04:48:32.973Z,938.5
2017-10-03T04:49:41.055Z,938.5
2017-10-03T04:50:49.142Z,938.5
2017-10-03T04:51:57.347Z,938.4
2017-10-03T04:53:05.355Z,938.4
2017-10-03T04:54:13.403Z,938.4
2017-10-03T04:55:21.483Z,938.3
2017-10-03T04:56:29.571Z,938.3
2017-10-03T04:57:37.712Z,938.4
2017-10-03T04:58:45.743Z,938.5
2017-10-03T04:59:53.831Z,938.5
2017-10-03T05:01:01.986Z,938.5
2017-10-03T05:02:10.058Z,938.5
2017-10-03T05:03:18.211Z,938.6
2017-10-03T05:04:26.176Z,938.6
2017-10-03T05:05:34.334Z,938.6
2017-10-03T05:06:42.357Z,938.6
2017-10-03T05:07:50.444Z,938.6
2017-10-03T05:08:58.587Z,938.6
2017-10-03T05:10:06.691Z,938.7
2017-10-03T05:11:14.739Z,938.6
2017-10-03T05:12:22.793Z,938.7
2017-10-03T05:13:30.883Z,938.7
2017-10-03T05:14:39.099Z,938.7
2017-10-03T05:15:47.059Z,938.8
2017-10-03T05:16:55.150Z,938.8
2017-10-03T05:18:03.361Z,938.8
2017-10-03T05:19:11.326Z,938.8
2017-10-03T05:20:19.473Z,938.8
2017-10-03T05:21:27.503Z,938.9
2017-10-03T05:22:35.586Z,939.0
2017-10-03T05:23:43.816Z,939.2
2017-10-03T05:24:51.760Z,939.3
2017-10-03T05:25:59.903Z,939.4
2017-10-03T05:27:07.933Z,939.5
2017-10-03T05:28:16.024Z,939.6
2017-10-03T05:29:24.103Z,939.7
2017-10-03T05:30:32.189Z,939.8
2017-10-03T05:31:40.399Z,939.7
2017-10-03T05:32:48.364Z,939.6
2017-10-03T05:33:56.571Z,939.5
2017-10-03T05:35:04.536Z,939.3
2017-10-03T05:36:12.624Z,939.1
2017-10-03T05:37:20.780Z,939.0
2017-10-03T05:38:28.822Z,939.0
2017-10-03T05:39:36.910Z,939.1
2017-10-03T05:40:44.992Z,939.0
2017-10-03T05:41:53.077Z,939.1
2017-10-03T05:43:01.295Z,939.1
2017-10-03T05:44:09.260Z,939.1
2017-10-03T05:45:17.344Z,939.3
2017-10-03T05:46:25.457Z,939.4
2017-10-03T05:47:33.540Z,939.5
2017-10-03T05:48:41.692Z,939.7
2017-10-03T05:49:49.974Z,939.7
2017-10-03T05:50:58.111Z,939.5
2017-10-03T05:52:06.089Z,939.5
2017-10-03T05:53:14.175Z,939.3
2017-10-03T05:54:22.384Z,939.4
2017-10-03T05:55:30.349Z,939.6
2017-10-03T05:56:38.437Z,939.9
2017-10-03T05:57:46.520Z,940.1
2017-10-03T05:58:54.606Z,940.2
2017-10-03T06:00:03.068Z,940.2
2017-10-03T06:01:11.100Z,940.2
2017-10-03T06:02:19.187Z,940.2
2017-10-03T06:03:27.299Z,940.2
2017-10-03T06:04:35.358Z,940.1
2017-10-03T06:05:43.949Z,940.0
2017-10-03T06:06:51.642Z,939.9
2017-10-03T06:07:59.618Z,939.9
2017-10-03T06:09:07.700Z,940.0
2017-10-03T06:10:15.796Z,940.0
2017-10-03T06:11:23.940Z,940.1
2017-10-03T06:12:31.966Z,940.1
2017-10-03T06:13:40.052Z,940.2
2017-10-03T06:14:48.138Z,940.2
2017-10-03T06:15:56.232Z,940.2
2017-10-03T06:17:04.503Z,940.3
2017-10-03T06:18:12.402Z,940.4
2017-10-03T06:19:20.497Z,940.5
2017-10-03T06:20:31.087Z,940.7
2017-10-03T06:21:36.815Z,940.8
2017-10-03T06:22:44.825Z,940.7
2017-10-03T06:23:52.868Z,940.5
2017-10-03T06:25:01.217Z,940.4
2017-10-03T06:26:09.114Z,940.3
2017-10-03T06:27:17.126Z,940.1
2017-10-03T06:28:25.270Z,940.0
2017-10-03T06:29:33.300Z,939.9
2017-10-03T06:30:41.591Z,939.8
2017-10-03T06:31:49.484Z,939.8
2017-10-03T06:32:57.677Z,939.8
2017-10-03T06:34:05.644Z,939.7
2017-10-03T06:35:13.727Z,939.8
2017-10-03T06:36:21.815Z,939.8
2017-10-03T06:37:29.957Z,939.8
2017-10-03T06:38:38.045Z,939.9
2017-10-03T06:39:46.235Z,939.9
2017-10-03T06:40:54.189Z,940.1
2017-10-03T06:42:02.244Z,940.2
2017-10-03T06:43:10.329Z,940.2
2017-10-03T06:44:18.544Z,940.4
2017-10-03T06:45:26.503Z,940.4
2017-10-03T06:46:34.588Z,940.4
2017-10-03T06:47:42.686Z,940.4
2017-10-03T06:48:50.769Z,940.5
2017-10-03T06:50:00.854Z,940.6
2017-10-03T06:51:07.447Z,940.5
2017-10-03T06:52:15.239Z,940.5
2017-10-03T06:53:23.235Z,940.5
2017-10-03T06:54:31.372Z,940.5
2017-10-03T06:55:39.409Z,940.5
2017-10-03T06:56:47.375Z,940.6
2017-10-03T06:57:55.562Z,940.5
2017-10-03T06:59:03.555Z,940.4
2017-10-03T07:00:11.643Z,940.5
2017-10-03T07:01:19.798Z,940.6
2017-10-03T07:02:27.828Z,940.7
2017-10-03T07:03:35.915Z,940.7
2017-10-03T07:04:44.098Z,940.7
2017-10-03T07:05:52.084Z,940.8
2017-10-03T07:07:00.229Z,940.9
2017-10-03T07:08:08.257Z,941.0
2017-10-03T07:09:16.400Z,941.0
2017-10-03T07:10:24.431Z,940.9
2017-10-03T07:11:32.525Z,941.0
2017-10-03T07:12:40.722Z,941.0
2017-10-03T07:13:49.012Z,941.1
2017-10-03T07:14:56.772Z,941.1
2017-10-03T07:16:04.858Z,941.1
2017-10-03T07:17:12.948Z,941.2
2017-10-03T07:18:21.089Z,941.2
2017-10-03T07:19:29.121Z,941.4
2017-10-03T07:20:37.227Z,941.4
2017-10-03T07:21:45.372Z,941.4
2017-10-03T07:22:53.750Z,941.4
2017-10-03T07:24:01.592Z,941.5
2017-10-03T07:25:10.254Z,941.4
2017-10-03T07:26:17.826Z,941.5
2017-10-03T07:27:25.946Z,941.5
2017-10-03T07:28:33.914Z,941.5
2017-10-03T07:29:42.971Z,941.5
2017-10-03T07:30:50.398Z,941.6
2017-10-03T07:31:58.611Z,941.6
2017-10-03T07:33:06.258Z,941.6
2017-10-03T07:34:14.481Z,941.5
2017-10-03T07:35:22.640Z,941.4
2017-10-03T07:36:30.488Z,941.4
2017-10-03T07:37:38.584Z,941.2
2017-10-03T07:38:46.671Z,941.2
2017-10-03T07:39:54.861Z,941.2
2017-10-03T07:41:02.961Z,941.3
2017-10-03T07:42:10.926Z,941.1
2017-10-03T07:43:19.009Z,941.1
2017-10-03T07:44:27.213Z,941.2
2017-10-03T07:45:35.185Z,941.3
2017-10-03T07:46:43.334Z,941.3
2017-10-03T07:47:51.359Z,941.3
2017-10-03T07:48:59.643Z,941.4
2017-10-03T07:50:07.530Z,941.5
2017-10-03T07:51:15.617Z,941.5
2017-10-03T07:52:23.763Z,941.6
2017-10-03T07:53:31.981Z,941.8
2017-10-03T07:54:39.870Z,941.7
2017-10-03T07:55:47.963Z,941.7
2017-10-03T07:56:56.105Z,941.7
2017-10-03T07:58:04.282Z,941.7
2017-10-03T07:59:12.221Z,941.8
2017-10-03T08:00:20.305Z,941.7
2017-10-03T08:01:28.389Z,941.8
2017-10-03T08:02:36.661Z,941.9
2017-10-03T08:03:44.649Z,941.9
2017-10-03T08:04:53.373Z,941.9
2017-10-03T08:06:00.764Z,941.8
2017-10-03T08:07:09.008Z,941.9
2017-10-03T08:08:16.934Z,941.9
2017-10-03T08:09:26.014Z,942.0
2017-10-03T08:10:33.108Z,942.1
2017-10-03T08:11:41.197Z,942.1
2017-10-03T08:12:49.519Z,942.1
2017-10-03T08:13:57.368Z,942.2
2017-10-03T08:15:05.506Z,942.2
2017-10-03T08:16:13.538Z,942.3
2017-10-03T08:17:21.625Z,942.4
2017-10-03T08:18:29.709Z,942.4
2017-10-03T08:19:37.797Z,942.4
2017-10-03T08:20:45.939Z,942.5
2017-10-03T08:21:53.970Z,942.6
2017-10-03T08:23:02.054Z,942.6
2017-10-03T08:24:10.139Z,942.7
2017-10-03T08:25:18.225Z,942.8
2017-10-03T08:26:26.542Z,942.8
2017-10-03T08:27:34.399Z,942.9
2017-10-03T08:28:42.540Z,943.0
2017-10-03T08:29:50.569Z,943.0
2017-10-03T08:30:58.656Z,943.0
2017-10-03T08:32:07.018Z,943.1
2017-10-03T08:33:14.826Z,943.2
2017-10-03T08:34:22.913Z,943.3
2017-10-03T08:35:31.091Z,943.3
2017-10-03T08:36:39.082Z,943.4
2017-10-03T08:37:47.237Z,943.5
2017-10-03T08:38:55.267Z,943.5
2017-10-03T08:40:03.356Z,943.7
2017-10-03T08:41:11.436Z,943.7
2017-10-03T08:42:19.523Z,943.8
2017-10-03T08:43:27.672Z,943.9
2017-10-03T08:44:35.826Z,943.9
2017-10-03T08:45:43.789Z,944.0
2017-10-03T08:46:51.877Z,943.9
2017-10-03T08:47:59.962Z,944.0
2017-10-03T08:49:08.189Z,944.0
2017-10-03T08:50:16.160Z,944.0
2017-10-03T08:51:24.240Z,944.0
2017-10-03T08:52:32.325Z,944.1
2017-10-03T08:53:40.409Z,944.2
2017-10-03T08:54:48.552Z,944.2
2017-10-03T08:55:56.583Z,944.1
2017-10-03T08:57:04.668Z,944.2
2017-10-03T08:58:12.754Z,944.1
2017-10-03T08:59:20.840Z,944.1
2017-10-03T09:00:29.046Z,944.1
2017-10-03T09:01:37.012Z,944.1
2017-10-03T09:02:45.097Z,944.1
2017-10-03T09:03:53.189Z,944.1
2017-10-03T09:05:01.398Z,944.2
2017-10-03T09:06:09.409Z,944.3
2017-10-03T09:07:17.507Z,944.3
2017-10-03T09:08:25.526Z,944.3
2017-10-03T09:09:33.622Z,944.4
2017-10-03T09:10:41.708Z,944.4
2017-10-03T09:11:49.850Z,944.4
2017-10-03T09:12:57.880Z,944.3
2017-10-03T09:14:05.962Z,944.4
2017-10-03T09:15:14.070Z,944.5
2017-10-03T09:16:22.262Z,944.4
2017-10-03T09:17:30.278Z,944.5
2017-10-03T09:18:38.307Z,944.5
2017-10-03T09:19:46.394Z,944.6
2017-10-03T09:20:54.478Z,944.7
2017-10-03T09:22:02.566Z,944.7
2017-10-03T09:23:10.707Z,944.7
2017-10-03T09:24:18.736Z,944.8
2017-10-03T09:25:26.822Z,944.8
2017-10-03T09:26:34.909Z,944.9
2017-10-03T09:27:42.997Z,944.9
2017-10-03T09:28:51.207Z,944.9
2017-10-03T09:29:59.169Z,945.0
2017-10-03T09:31:07.253Z,945.0
2017-10-03T09:32:15.396Z,945.0
2017-10-03T09:33:23.422Z,945.1
2017-10-03T09:34:31.566Z,945.0
2017-10-03T09:35:39.597Z,945.1
2017-10-03T09:36:47.684Z,945.1
2017-10-03T09:37:55.769Z,945.1
2017-10-03T09:39:03.854Z,945.2
2017-10-03T09:40:12.060Z,945.1
2017-10-03T09:41:20.027Z,945.2
2017-10-03T09:42:28.111Z,945.2
2017-10-03T09:43:36.198Z,945.2
2017-10-03T09:44:44.286Z,945.2
2017-10-03T09:45:52.435Z,945.2
2017-10-03T09:47:00.463Z,945.2
2017-10-03T09:48:08.608Z,945.3
2017-10-03T09:49:16.639Z,945.4
2017-10-03T09:50:25.172Z,945.4
2017-10-03T09:51:32.931Z,945.4
2017-10-03T09:52:40.897Z,945.4
2017-10-03T09:53:49.071Z,945.5
2017-10-03T09:54:57.069Z,945.5
2017-10-03T09:56:05.156Z,945.5
2017-10-03T09:57:13.298Z,945.5
2017-10-03T09:58:21.326Z,945.6
2017-10-03T09:59:29.412Z,945.6
2017-10-03T10:00:37.499Z,945.7
2017-10-03T10:01:45.584Z,945.6
2017-10-03T10:02:53.952Z,945.7
2017-10-03T10:04:01.814Z,945.7
2017-10-03T10:05:09.843Z,945.7
2017-10-03T10:06:17.928Z,945.7
2017-10-03T10:07:26.168Z,945.7
2017-10-03T10:08:34.219Z,945.7
2017-10-03T10:09:42.186Z,945.7
2017-10-03T10:10:50.268Z,945.8
2017-10-03T10:11:58.530Z,945.8
2017-10-03T10:13:06.444Z,945.8
2017-10-03T10:14:14.585Z,945.8
2017-10-03T10:15:22.626Z,945.8
2017-10-03T10:16:30.877Z,945.8
2017-10-03T10:17:38.797Z,945.8
2017-10-03T10:18:46.889Z,945.8
2017-10-03T10:19:55.095Z,945.8
2017-10-03T10:21:03.215Z,945.8
2017-10-03T10:22:11.148Z,945.8
2017-10-03T10:23:19.238Z,945.8
2017-10-03T10:24:27.330Z,945.8
2017-10-03T10:25:35.638Z,945.8
2017-10-03T10:26:43.514Z,945.8
2017-10-03T10:27:51.587Z,945.9
2017-10-03T10:28:59.673Z,945.8
2017-10-03T10:30:07.762Z,945.8
2017-10-03T10:31:15.969Z,945.8
2017-10-03T10:32:23.936Z,945.9
2017-10-03T10:33:32.027Z,945.9
2017-10-03T10:34:40.109Z,945.9
2017-10-03T10:35:48.347Z,945.9
2017-10-03T10:36:56.404Z,945.9
2017-10-03T10:38:04.399Z,945.9
2017-10-03T10:39:12.605Z,945.9
2017-10-03T10:40:20.580Z,945.9
2017-10-03T10:41:28.666Z,945.9
2017-10-03T10:42:36.807Z,945.9
2017-10-03T10:43:44.947Z,945.9
2017-10-03T10:44:52.989Z,945.9
2017-10-03T10:46:01.028Z,946.0
2017-10-03T10:47:09.097Z,946.0
2017-10-03T10:48:17.451Z,946.0
2017-10-03T10:49:25.307Z,946.0
2017-10-03T10:50:33.405Z,946.1
2017-10-03T10:51:41.610Z,946.1
2017-10-03T10:52:49.579Z,946.1
2017-10-03T10:53:57.723Z,946.1
2017-10-03T10:55:05.756Z,946.0
2017-10-03T10:56:13.836Z,946.1
2017-10-03T10:57:22.114Z,946.1
2017-10-03T10:58:30.202Z,946.1
2017-10-03T10:59:38.407Z,946.1
2017-10-03T11:00:46.377Z,946.2
2017-10-03T11:01:54.460Z,946.2
2017-10-03T11:03:02.548Z,946.2
2017-10-03T11:04:10.633Z,946.2
2017-10-03T11:05:18.773Z,946.2
2017-10-03T11:06:26.804Z,946.2
2017-10-03T11:07:35.009Z,946.2
2017-10-03T11:08:42.978Z,946.2
2017-10-03T11:09:51.064Z,946.2
2017-10-03T11:10:59.206Z,946.2
2017-10-03T11:12:07.236Z,946.2
2017-10-03T11:13:15.323Z,946.2
2017-10-03T11:14:23.407Z,946.3
2017-10-03T11:15:31.492Z,946.2
2017-10-03T11:16:39.637Z,946.2
2017-10-03T11:17:47.666Z,946.2
2017-10-03T11:18:55.754Z,946.2
2017-10-03T11:20:04.001Z,946.3
2017-10-03T11:21:11.927Z,946.3
2017-10-03T11:22:20.076Z,946.2
2017-10-03T11:23:28.222Z,946.2
2017-10-03T11:24:36.345Z,946.3
2017-10-03T11:25:44.287Z,946.2
2017-10-03T11:26:52.372Z,946.2
2017-10-03T11:28:00.516Z,946.3
2017-10-03T11:29:08.545Z,946.3
2017-10-03T11:30:16.633Z,946.3
2017-10-03T11:31:24.718Z,946.3
2017-10-03T11:32:32.801Z,946.3
2017-10-03T11:33:41.159Z,946.4
2017-10-03T11:34:48.989Z,946.3
2017-10-03T11:35:57.085Z,946.3
2017-10-03T11:37:05.174Z,946.3
2017-10-03T11:38:13.370Z,946.3
2017-10-03T11:39:21.411Z,946.3
2017-10-03T11:40:29.432Z,946.3
2017-10-03T11:41:37.521Z,946.3
2017-10-03T11:42:45.606Z,946.4
2017-10-03T11:43:53.691Z,946.3
2017-10-03T11:45:01.834Z,946.4
2017-10-03T11:46:09.867Z,946.3
2017-10-03T11:47:17.957Z,946.3
2017-10-03T11:48:26.044Z,946.3
2017-10-03T11:49:34.133Z,946.3
2017-10-03T11:50:42.347Z,946.3
2017-10-03T11:51:50.304Z,946.3
2017-10-03T11:52:58.464Z,946.2
2017-10-03T11:54:06.477Z,946.3
2017-10-03T11:55:14.617Z,946.2
2017-10-03T11:56:22.768Z,946.2
2017-10-03T11:57:30.900Z,946.2
2017-10-03T11:58:38.822Z,946.2
2017-10-03T11:59:46.908Z,946.2
2017-10-03T12:00:55.102Z,946.3
2017-10-03T12:02:03.183Z,946.3
2017-10-03T12:03:11.165Z,946.3
2017-10-03T12:04:19.251Z,946.4
2017-10-03T12:05:27.709Z,946.3
2017-10-03T12:06:35.794Z,946.3
2017-10-03T12:07:44.000Z,946.4
2017-10-03T12:08:52.066Z,946.3
2017-10-03T12:10:00.100Z,946.3
2017-10-03T12:11:08.193Z,946.3
2017-10-03T12:12:16.224Z,946.3
2017-10-03T12:13:24.435Z,946.3
2017-10-03T12:14:32.527Z,946.4
2017-10-03T12:15:40.484Z,946.4
2017-10-03T12:16:48.570Z,946.4
2017-10-03T12:17:56.662Z,946.4
2017-10-03T12:19:04.806Z,946.4
2017-10-03T12:20:12.838Z,946.4
2017-10-03T12:21:20.924Z,946.4
2017-10-03T12:22:29.010Z,946.4
2017-10-03T12:23:37.111Z,946.4
2017-10-03T12:24:45.301Z,946.5
2017-10-03T12:25:53.266Z,946.4
2017-10-03T12:27:01.420Z,946.4
2017-10-03T12:28:09.465Z,946.4
2017-10-03T12:29:17.546Z,946.4
2017-10-03T12:30:25.687Z,946.4
2017-10-03T12:31:33.724Z,946.5
2017-10-03T12:32:41.805Z,946.5
2017-10-03T12:33:49.897Z,946.5
2017-10-03T12:34:57.986Z,946.5
2017-10-03T12:36:06.194Z,946.5
2017-10-03T12:37:14.350Z,946.5
2017-10-03T12:38:22.246Z,946.6
2017-10-03T12:39:30.330Z,946.6
2017-10-03T12:40:38.430Z,946.6
2017-10-03T12:41:46.573Z,946.6
2017-10-03T12:42:54.717Z,946.6
2017-10-03T12:44:02.685Z,946.6
2017-10-03T12:45:10.780Z,946.6
2017-10-03T12:46:18.931Z,946.6
2017-10-03T12:47:27.066Z,946.6
2017-10-03T12:48:35.031Z,946.6
2017-10-03T12:49:43.121Z,946.7
2017-10-03T12:50:51.297Z,946.6
2017-10-03T12:51:59.318Z,946.6
2017-10-03T12:53:07.500Z,946.6
2017-10-03T12:54:15.465Z,946.6
2017-10-03T12:55:23.562Z,946.5
2017-10-03T12:56:31.650Z,946.6
2017-10-03T12:57:39.746Z,946.5
2017-10-03T12:58:47.950Z,946.6
2017-10-03T12:59:56.074Z,946.5
2017-10-03T13:01:04.002Z,946.5
2017-10-03T13:02:12.090Z,946.5
2017-10-03T13:03:20.174Z,946.5
2017-10-03T13:04:28.467Z,946.5
2017-10-03T13:05:36.350Z,946.5
2017-10-03T13:06:44.434Z,946.5
2017-10-03T13:07:52.521Z,946.5
2017-10-03T13:09:00.607Z,946.5
2017-10-03T13:10:08.749Z,946.5
2017-10-03T13:11:16.778Z,946.5
2017-10-03T13:12:24.864Z,946.4
2017-10-03T13:13:32.953Z,946.4
2017-10-03T13:14:41.160Z,946.4
2017-10-03T13:15:49.247Z,946.4
2017-10-03T13:16:57.210Z,946.4
2017-10-03T13:18:05.298Z,946.4
2017-10-03T13:19:13.405Z,946.4
2017-10-03T13:20:21.534Z,946.4
2017-10-03T13:21:29.715Z,946.4
2017-10-03T13:22:37.677Z,946.4
2017-10-03T13:23:45.761Z,946.4
2017-10-03T13:24:53.848Z,946.4
2017-10-03T13:26:01.935Z,946.4
2017-10-03T13:27:10.141Z,946.4
2017-10-03T13:28:18.115Z,946.4
2017-10-03T13:29:26.200Z,946.5
2017-10-03T13:30:34.343Z,946.5
2017-10-03T13:31:42.374Z,946.5
2017-10-03T13:32:50.516Z,946.6
2017-10-03T13:33:58.548Z,946.6
2017-10-03T13:35:06.642Z,946.6
2017-10-03T13:36:14.733Z,946.6
2017-10-03T13:37:22.820Z,946.6
2017-10-03T13:38:30.961Z,946.6
2017-10-03T13:39:38.992Z,946.6
2017-10-03T13:40:47.078Z,946.6
2017-10-03T13:41:55.163Z,946.6
2017-10-03T13:43:03.369Z,946.6
2017-10-03T13:44:11.401Z,946.6
2017-10-03T13:45:19.423Z,946.6
2017-10-03T13:46:27.633Z,946.6
2017-10-03T13:47:35.599Z,946.6
2017-10-03T13:48:43.681Z,946.6
2017-10-03T13:49:51.891Z,946.6
2017-10-03T13:50:59.902Z,946.6
2017-10-03T13:52:07.940Z,946.6
2017-10-03T13:53:16.030Z,946.6
2017-10-03T13:54:24.134Z,946.7
2017-10-03T13:55:32.415Z,946.7
2017-10-03T13:56:40.319Z,946.7
2017-10-03T13:57:48.404Z,946.8
2017-10-03T13:58:56.497Z,946.7
2017-10-03T14:00:04.586Z,946.8
2017-10-03T14:01:12.730Z,946.8
2017-10-03T14:02:20.882Z,946.8
2017-10-03T14:03:29.001Z,946.8
2017-10-03T14:04:37.010Z,946.8
2017-10-03T14:05:45.070Z,946.8
2017-10-03T14:06:53.176Z,946.8
2017-10-03T14:08:01.204Z,946.8
2017-10-03T14:09:09.380Z,946.8
2017-10-03T14:10:17.378Z,946.8
2017-10-03T14:11:25.462Z,946.8
2017-10-03T14:12:33.669Z,946.8
2017-10-03T14:13:41.634Z,946.8
2017-10-03T14:14:49.720Z,946.8
2017-10-03T14:15:57.808Z,946.8
2017-10-03T14:17:05.895Z,946.8
2017-10-03T14:18:14.183Z,946.7
2017-10-03T14:19:22.066Z,946.8
2017-10-03T14:20:30.156Z,946.8
2017-10-03T14:21:38.244Z,946.8
2017-10-03T14:22:46.328Z,946.8
2017-10-03T14:23:54.532Z,946.8
2017-10-03T14:25:02.498Z,946.8
2017-10-03T14:26:10.585Z,946.8
2017-10-03T14:27:18.672Z,946.8
2017-10-03T14:28:26.886Z,946.8
2017-10-03T14:29:34.902Z,946.8
2017-10-03T14:30:42.931Z,946.8
2017-10-03T14:31:51.021Z,946.8
2017-10-03T14:32:59.105Z,946.8
2017-10-03T14:34:07.313Z,946.8
2017-10-03T14:35:15.399Z,946.8
2017-10-03T14:36:23.534Z,946.8
2017-10-03T14:37:31.450Z,946.8